Time;durP1;ratioP1;P1;durP2;ratioP2;P2;SDS_P1;SDS_P2;PMS_P1;PMS_P2;Temp;Humidity;BMP_temperature;BMP_pressure;BME280_temperature;BME280_humidity;BME280_pressure;Samples;Min_cycle;Max_cycle;Signal;HPM_P1;HPM_P2
2022/10/03 00:02:24;;;;;;;19.15;2.55;;;10.30;99.40;;;;;;5014794;28;20040;-79
2022/10/03 00:05:14;;;;;;;18.88;2.55;;;10.20;99.50;;;;;;4999855;28;20129;-79
2022/10/03 00:08:17;;;;;;;17.40;2.25;;;10.20;99.50;;;;;;5017314;28;20033;-79
2022/10/03 00:11:10;;;;;;;24.27;2.78;;;10.10;99.60;;;;;;5013040;28;20073;-79
2022/10/03 00:13:52;;;;;;;16.45;2.38;;;10.10;99.50;;;;;;5008279;28;20045;-78
2022/10/03 00:16:50;;;;;;;16.83;2.13;;;10.10;99.60;;;;;;5000822;28;20048;-79
2022/10/03 00:19:27;;;;;;;13.50;2.70;;;10.00;99.60;;;;;;4994866;28;20069;-78
2022/10/03 00:22:17;;;;;;;24.27;2.42;;;10.00;99.70;;;;;;5005756;28;20099;-79
2022/10/03 00:25:01;;;;;;;22.25;2.60;;;10.00;99.60;;;;;;5006667;28;20045;-79
2022/10/03 00:27:46;;;;;;;24.77;2.70;;;9.90;99.70;;;;;;5011826;28;20406;-78
2022/10/03 00:30:18;;;;;;;22.23;2.42;;;9.90;99.80;;;;;;5012862;28;20054;-79
2022/10/03 00:32:54;;;;;;;25.17;3.38;;;9.90;99.80;;;;;;5013710;28;20026;-79
2022/10/03 00:35:34;;;;;;;21.38;2.33;;;9.80;99.70;;;;;;5006969;28;20053;-79
2022/10/03 00:38:22;;;;;;;19.40;2.47;;;9.80;99.80;;;;;;5009708;28;20090;-79
2022/10/03 00:41:23;;;;;;;22.38;3.60;;;9.80;99.80;;;;;;5003845;28;20113;-79
2022/10/03 00:44:16;;;;;;;23.65;3.08;;;9.80;99.80;;;;;;5002656;28;20109;-79
2022/10/03 00:47:19;;;;;;;21.63;2.20;;;9.70;99.80;;;;;;4995926;28;20038;-79
2022/10/03 00:50:14;;;;;;;17.73;2.70;;;9.60;99.80;;;;;;5009542;28;20129;-79
2022/10/03 00:52:57;;;;;;;24.58;2.78;;;9.60;99.80;;;;;;5024413;28;20041;-79
2022/10/03 00:55:48;;;;;;;14.38;2.45;;;9.60;99.90;;;;;;5005536;28;20562;-79
2022/10/03 00:58:47;;;;;;;20.20;2.53;;;9.60;99.90;;;;;;5007112;28;20059;-79
2022/10/03 01:01:28;;;;;;;26.75;3.17;;;9.60;99.90;;;;;;5034978;28;20065;-79
2022/10/03 01:04:27;;;;;;;18.58;2.75;;;9.50;99.80;;;;;;5002231;28;20030;-79
2022/10/03 01:07:37;;;;;;;30.85;2.88;;;9.40;99.80;;;;;;5007178;28;20159;-79
2022/10/03 01:10:27;;;;;;;12.73;2.60;;;9.30;99.80;;;;;;4992128;28;20030;-79
2022/10/03 01:13:07;;;;;;;30.80;2.63;;;9.30;99.90;;;;;;4990671;28;20129;-79
2022/10/03 01:15:48;;;;;;;17.50;2.67;;;9.10;99.90;;;;;;5006988;28;20136;-79
2022/10/03 01:18:43;;;;;;;19.30;2.53;;;9.10;99.90;;;;;;4995325;28;20494;-79
2022/10/03 01:21:30;;;;;;;16.27;2.75;;;9.10;99.90;;;;;;5005109;28;20116;-79
2022/10/03 01:24:08;;;;;;;11.35;2.38;;;9.10;99.90;;;;;;4999052;28;20268;-79
2022/10/03 01:26:42;;;;;;;13.02;2.55;;;9.00;99.90;;;;;;5005353;28;20114;-79
2022/10/03 01:32:35;;;;;;;12.85;2.13;;;8.90;99.90;;;;;;5003470;28;20068;-79
2022/10/03 01:35:19;;;;;;;11.85;2.45;;;8.90;99.90;;;;;;5011324;28;20029;-79
2022/10/03 01:37:54;;;;;;;15.50;2.80;;;8.80;99.90;;;;;;5009301;28;20355;-79
2022/10/03 01:40:23;;;;;;;16.33;2.53;;;9.00;99.90;;;;;;5005167;28;20034;-79
2022/10/03 01:43:05;;;;;;;20.98;3.05;;;9.00;99.90;;;;;;5007364;28;20135;-79
2022/10/03 01:45:58;;;;;;;24.38;2.53;;;8.90;99.90;;;;;;5015131;28;20073;-79
2022/10/03 01:48:51;;;;;;;17.75;3.13;;;8.90;99.90;;;;;;5005774;28;20326;-79
2022/10/03 01:51:40;;;;;;;15.23;2.42;;;9.00;99.90;;;;;;5006409;28;20355;-79
2022/10/03 01:54:22;;;;;;;12.88;2.67;;;9.00;99.90;;;;;;5008770;28;20026;-79
2022/10/03 01:57:00;;;;;;;20.90;2.53;;;8.90;99.90;;;;;;5005659;28;20057;-79
2022/10/03 01:59:41;;;;;;;22.33;2.92;;;8.90;99.90;;;;;;5006632;28;20626;-79
2022/10/03 02:02:30;;;;;;;20.13;2.65;;;8.90;99.90;;;;;;5010446;28;20053;-79
2022/10/03 02:05:04;;;;;;;23.10;2.80;;;9.00;99.90;;;;;;5006328;28;20037;-79
2022/10/03 02:07:51;;;;;;;21.20;3.08;;;9.00;99.90;;;;;;5008284;28;20470;-79
2022/10/03 02:10:44;;;;;;;18.35;3.13;;;9.00;99.90;;;;;;5005069;28;20057;-79
2022/10/03 02:13:14;;;;;;;26.98;3.30;;;9.10;99.90;;;;;;5006815;28;20466;-79
2022/10/03 02:16:01;;;;;;;30.50;3.47;;;9.10;99.90;;;;;;5012027;28;20328;-79
2022/10/03 02:18:48;;;;;;;20.80;3.10;;;9.10;99.90;;;;;;5019955;28;20052;-79
2022/10/03 02:21:22;;;;;;;18.75;2.38;;;9.00;99.90;;;;;;4999725;28;20129;-79
2022/10/03 02:24:00;;;;;;;26.48;2.97;;;9.10;99.90;;;;;;5021887;28;20040;-79
2022/10/03 02:26:51;;;;;;;23.20;2.88;;;9.10;99.90;;;;;;5009618;28;20046;-79
2022/10/03 02:29:43;;;;;;;24.20;2.88;;;9.20;99.90;;;;;;5008498;28;20046;-79
2022/10/03 02:32:54;;;;;;;23.92;2.90;;;9.30;99.90;;;;;;5014328;28;20373;-78
2022/10/03 02:35:49;;;;;;;21.02;2.50;;;9.50;99.90;;;;;;5012575;28;20045;-79
2022/10/03 02:38:45;;;;;;;22.17;2.67;;;9.60;99.90;;;;;;4983226;28;20043;-79
2022/10/03 02:41:47;;;;;;;17.80;2.58;;;9.80;99.90;;;;;;5001147;28;20137;-79
2022/10/03 02:44:45;;;;;;;19.25;3.25;;;9.80;99.90;;;;;;5004021;28;20060;-79
2022/10/03 02:47:31;;;;;;;21.50;3.10;;;9.80;99.90;;;;;;5006735;28;20054;-78
2022/10/03 02:50:17;;;;;;;24.88;2.97;;;9.80;99.90;;;;;;5008543;28;20457;-79
2022/10/03 02:53:21;;;;;;;17.75;2.67;;;9.70;99.90;;;;;;5008501;28;20026;-79
2022/10/03 02:56:05;;;;;;;16.35;2.50;;;9.70;99.90;;;;;;5003291;28;20121;-79
2022/10/03 02:59:00;;;;;;;14.02;2.50;;;9.60;99.90;;;;;;5004873;28;20050;-79
2022/10/03 03:01:57;;;;;;;22.95;2.70;;;9.60;99.90;;;;;;5010286;28;20465;-79
2022/10/03 03:05:06;;;;;;;20.92;2.60;;;9.60;99.90;;;;;;4997846;28;20059;-79
2022/10/03 03:07:44;;;;;;;18.27;2.95;;;9.50;99.90;;;;;;5000370;28;20121;-79
2022/10/03 03:10:32;;;;;;;29.92;3.08;;;9.40;99.90;;;;;;5006231;28;20096;-79
2022/10/03 03:13:21;;;;;;;16.80;2.75;;;9.30;99.90;;;;;;4995829;28;20418;-79
2022/10/03 03:16:11;;;;;;;17.23;2.42;;;9.20;99.90;;;;;;5002564;28;20105;-79
2022/10/03 03:19:12;;;;;;;18.08;2.85;;;9.20;99.90;;;;;;4998594;28;20034;-79
2022/10/03 03:22:09;;;;;;;21.85;3.05;;;9.10;99.90;;;;;;5008809;28;20022;-79
2022/10/03 03:24:53;;;;;;;23.67;3.08;;;9.20;99.90;;;;;;5003893;28;20078;-79
2022/10/03 03:27:46;;;;;;;25.30;2.55;;;9.30;99.90;;;;;;5017145;28;20137;-79
2022/10/03 03:30:16;;;;;;;25.63;2.97;;;9.30;99.90;;;;;;5006954;28;20466;-79
2022/10/03 03:33:00;;;;;;;19.42;2.65;;;9.30;99.90;;;;;;5001764;28;20078;-79
2022/10/03 03:35:39;;;;;;;36.53;3.70;;;9.30;99.90;;;;;;5008170;28;20037;-79
2022/10/03 03:38:29;;;;;;;22.30;2.70;;;9.20;99.90;;;;;;5007461;28;20088;-79
2022/10/03 03:41:42;;;;;;;22.58;2.95;;;9.10;99.90;;;;;;5008379;28;20037;-79
2022/10/03 03:44:36;;;;;;;30.13;3.97;;;9.10;99.90;;;;;;4984702;28;20065;-79
2022/10/03 03:47:26;;;;;;;24.65;3.10;;;9.00;99.90;;;;;;5011821;28;20405;-79
2022/10/03 03:50:28;;;;;;;26.38;2.95;;;9.10;99.90;;;;;;5010191;28;20430;-79
2022/10/03 03:53:25;;;;;;;19.40;2.78;;;9.00;99.90;;;;;;5019818;28;20025;-79
2022/10/03 03:56:01;;;;;;;18.63;2.25;;;8.90;99.90;;;;;;5006874;28;20478;-79
2022/10/03 03:58:46;;;;;;;26.58;3.15;;;8.90;99.90;;;;;;5005414;28;20047;-79
2022/10/03 04:01:32;;;;;;;19.83;2.97;;;8.80;99.90;;;;;;5010303;28;20048;-79
2022/10/03 04:04:07;;;;;;;22.48;2.45;;;8.70;99.90;;;;;;4988244;28;20034;-79
2022/10/03 04:06:49;;;;;;;24.02;3.22;;;8.60;99.90;;;;;;5011427;28;20335;-79
2022/10/03 04:09:29;;;;;;;21.95;2.67;;;8.50;99.90;;;;;;5004116;28;20128;-79
2022/10/03 04:12:39;;;;;;;23.98;2.75;;;8.50;99.90;;;;;;4998792;28;20041;-79
2022/10/03 04:15:50;;;;;;;16.15;2.42;;;8.40;99.90;;;;;;4997885;28;20407;-79
2022/10/03 04:18:59;;;;;;;10.77;2.15;;;8.20;99.90;;;;;;4994671;28;20132;-79
2022/10/03 04:22:03;;;;;;;14.50;1.88;;;8.10;99.90;;;;;;5000337;28;20026;-79
2022/10/03 04:24:39;;;;;;;21.35;2.88;;;8.10;99.90;;;;;;5006836;28;20087;-79
2022/10/03 04:27:07;;;;;;;15.90;2.10;;;8.00;99.90;;;;;;5023109;28;20513;-79
2022/10/03 04:29:59;;;;;;;24.35;2.78;;;8.10;99.90;;;;;;5001686;28;20050;-68
2022/10/03 04:32:38;;;;;;;14.60;2.28;;;8.10;99.90;;;;;;5014371;28;20044;-67
2022/10/03 04:35:40;;;;;;;10.98;2.40;;;8.00;99.90;;;;;;5004339;28;20111;-67
2022/10/03 04:38:20;;;;;;;16.30;2.42;;;8.00;99.90;;;;;;5005204;28;20034;-67
2022/10/03 04:41:11;;;;;;;20.88;2.58;;;7.90;99.90;;;;;;5007458;28;20053;-67
2022/10/03 04:43:40;;;;;;;22.92;2.92;;;8.10;99.90;;;;;;5003046;28;20062;-67
2022/10/03 04:46:28;;;;;;;20.02;2.38;;;8.10;99.90;;;;;;5012835;28;20158;-67
2022/10/03 04:49:20;;;;;;;21.25;2.80;;;8.20;99.90;;;;;;5009298;28;20029;-68
2022/10/03 04:51:59;;;;;;;20.05;3.10;;;8.20;99.90;;;;;;5005762;28;20434;-67
2022/10/03 04:54:31;;;;;;;26.98;3.15;;;8.20;99.90;;;;;;4997847;28;20136;-67
2022/10/03 04:57:21;;;;;;;15.77;2.95;;;8.10;99.90;;;;;;4996728;28;20432;-68
2022/10/03 04:59:49;;;;;;;14.95;3.15;;;8.30;99.90;;;;;;5002646;28;20239;-67
2022/10/03 05:02:44;;;;;;;19.52;3.85;;;8.30;99.90;;;;;;5007845;28;20093;-67
2022/10/03 05:05:47;;;;;;;25.20;3.70;;;8.30;99.90;;;;;;5001791;28;20156;-67
2022/10/03 05:08:42;;;;;;;22.25;3.88;;;8.20;99.90;;;;;;5015186;28;20518;-67
2022/10/03 05:11:27;;;;;;;18.27;2.58;;;8.30;99.90;;;;;;5000672;28;20026;-68
2022/10/03 05:14:01;;;;;;;22.30;3.17;;;8.30;99.90;;;;;;5009241;28;20442;-67
2022/10/03 05:16:45;;;;;;;22.75;3.05;;;8.40;99.90;;;;;;5016566;28;20037;-67
2022/10/03 05:19:44;;;;;;;22.02;2.70;;;8.50;99.90;;;;;;5009508;28;20034;-67
2022/10/03 05:22:22;;;;;;;10.73;2.70;;;8.50;99.90;;;;;;5011235;28;20034;-67
2022/10/03 05:25:28;;;;;;;22.63;2.95;;;8.60;99.90;;;;;;5019130;28;20048;-67
2022/10/03 05:28:33;;;;;;;19.77;2.83;;;8.60;99.90;;;;;;5005450;28;20368;-67
2022/10/03 05:31:36;;;;;;;20.80;2.90;;;8.60;99.90;;;;;;5009497;28;20113;-69
2022/10/03 05:34:25;;;;;;;18.33;2.53;;;8.50;99.90;;;;;;5002969;28;20026;-67
2022/10/03 05:37:19;;;;;;;11.57;2.40;;;8.50;99.90;;;;;;5005628;28;20124;-67
2022/10/03 05:39:52;;;;;;;24.85;3.17;;;8.50;99.90;;;;;;5000000;28;20453;-67
2022/10/03 05:42:39;;;;;;;20.90;3.03;;;8.40;99.90;;;;;;5017928;28;20457;-67
2022/10/03 05:45:23;;;;;;;18.50;2.90;;;8.40;99.90;;;;;;5005397;28;20096;-67
2022/10/03 05:48:10;;;;;;;20.52;3.08;;;8.30;99.90;;;;;;5014490;28;20066;-68
2022/10/03 05:50:58;;;;;;;18.27;2.75;;;8.30;99.90;;;;;;5012509;28;20460;-67
2022/10/03 05:53:58;;;;;;;15.75;2.95;;;8.30;99.90;;;;;;5012368;28;20177;-68
2022/10/03 05:56:50;;;;;;;14.10;2.70;;;8.40;99.90;;;;;;5008639;28;20048;-68
2022/10/03 05:59:27;;;;;;;15.98;2.90;;;8.40;99.90;;;;;;5002874;28;20470;-67
2022/10/03 06:02:18;;;;;;;14.35;2.35;;;8.40;99.90;;;;;;4999682;28;20088;-68
2022/10/03 06:05:21;;;;;;;19.25;2.67;;;8.40;99.90;;;;;;5003735;28;20049;-67
2022/10/03 06:08:39;;;;;;;14.00;2.70;;;8.40;99.90;;;;;;5012090;28;20048;-67
2022/10/03 06:11:22;;;;;;;15.93;2.72;;;8.50;99.90;;;;;;5008229;28;20060;-68
2022/10/03 06:14:09;;;;;;;19.83;3.00;;;8.60;99.90;;;;;;5003031;28;20041;-70
2022/10/03 06:17:11;;;;;;;20.75;3.30;;;8.60;99.90;;;;;;4999125;28;20034;-67
2022/10/03 06:20:00;;;;;;;16.67;3.53;;;8.60;99.90;;;;;;5003734;28;20058;-67
2022/10/03 06:23:00;;;;;;;22.50;3.80;;;8.70;99.90;;;;;;5006841;28;20545;-67
2022/10/03 06:25:50;;;;;;;16.35;3.30;;;8.80;99.90;;;;;;5000802;28;20034;-67
2022/10/03 06:28:54;;;;;;;16.50;2.83;;;8.90;99.90;;;;;;5009775;28;20038;-67
2022/10/03 06:31:46;;;;;;;19.48;3.40;;;8.90;99.90;;;;;;5010079;28;20112;-67
2022/10/03 06:34:41;;;;;;;15.98;3.22;;;8.90;99.90;;;;;;5009032;28;20064;-67
2022/10/03 06:37:22;;;;;;;23.38;3.50;;;9.00;99.90;;;;;;5008688;28;20179;-67
2022/10/03 06:40:21;;;;;;;15.02;2.75;;;9.00;99.90;;;;;;5002825;28;20490;-68
2022/10/03 06:43:15;;;;;;;14.73;2.80;;;9.00;99.90;;;;;;5013558;28;20101;-68
2022/10/03 06:46:19;;;;;;;17.20;2.92;;;9.10;99.90;;;;;;5014510;28;20053;-66
2022/10/03 06:48:47;;;;;;;24.98;3.22;;;9.20;99.90;;;;;;4995287;28;20042;-66
2022/10/03 06:51:48;;;;;;;20.60;3.47;;;9.30;99.90;;;;;;5003838;28;20030;-66
2022/10/03 06:54:37;;;;;;;22.73;3.20;;;9.30;99.90;;;;;;5009120;28;20026;-66
2022/10/03 06:57:37;;;;;;;17.10;2.72;;;9.40;99.90;;;;;;5003133;28;20110;-66
2022/10/03 07:00:16;;;;;;;14.73;3.50;;;9.50;99.90;;;;;;4991176;28;20030;-66
2022/10/03 07:02:50;;;;;;;17.15;3.08;;;9.60;99.90;;;;;;5002288;28;20083;-66
2022/10/03 07:05:52;;;;;;;28.13;3.65;;;9.80;99.90;;;;;;5000225;28;20100;-67
2022/10/03 07:08:27;;;;;;;26.23;2.95;;;10.10;99.90;;;;;;5004229;28;20099;-65
2022/10/03 07:11:25;;;;;;;30.35;3.38;;;10.30;99.90;;;;;;4998963;28;20095;-65
2022/10/03 07:14:21;;;;;;;24.65;3.55;;;10.40;99.90;;;;;;5006003;28;20026;-67
2022/10/03 07:17:05;;;;;;;25.00;3.60;;;10.50;99.90;;;;;;5009246;28;20097;-66
2022/10/03 07:20:02;;;;;;;22.80;3.03;;;10.50;99.90;;;;;;5006585;28;20038;-67
2022/10/03 07:22:47;;;;;;;24.73;3.50;;;10.50;99.90;;;;;;5010353;28;20092;-66
2022/10/03 07:25:40;;;;;;;22.60;3.00;;;10.50;99.90;;;;;;5010069;28;20034;-67
2022/10/03 07:28:38;;;;;;;25.85;3.88;;;10.50;99.90;;;;;;5002434;28;20062;-67
2022/10/03 07:31:20;;;;;;;16.42;2.38;;;10.60;99.90;;;;;;5000914;28;20080;-66
2022/10/03 07:34:22;;;;;;;15.68;2.40;;;10.60;99.90;;;;;;5007996;28;20173;-67
2022/10/03 07:40:02;;;;;;;24.98;3.13;;;10.80;99.90;;;;;;5002784;28;20473;-67
2022/10/03 07:42:46;;;;;;;21.33;2.78;;;10.80;99.90;;;;;;5001837;28;20088;-66
2022/10/03 07:45:38;;;;;;;25.23;3.00;;;10.80;99.90;;;;;;5016152;28;20364;-68
2022/10/03 07:48:23;;;;;;;21.73;2.90;;;10.70;99.90;;;;;;4992786;28;20467;-67
2022/10/03 07:51:01;;;;;;;18.80;3.08;;;10.80;99.90;;;;;;5006295;28;20144;-66
2022/10/03 07:53:40;;;;;;;20.63;2.90;;;11.00;99.90;;;;;;5003084;28;20052;-67
2022/10/03 07:56:40;;;;;;;23.05;2.72;;;11.10;99.90;;;;;;5002175;28;20468;-67
2022/10/03 07:59:47;;;;;;;25.25;2.88;;;11.30;99.90;;;;;;5000060;28;20099;-68
2022/10/03 08:02:49;;;;;;;20.33;2.95;;;11.30;99.90;;;;;;4999616;28;20042;-67
2022/10/03 08:05:21;;;;;;;19.20;2.75;;;11.50;99.90;;;;;;5009191;28;20026;-66
2022/10/03 08:08:32;;;;;;;25.20;3.25;;;11.60;99.90;;;;;;5007889;28;20042;-67
2022/10/03 08:11:35;;;;;;;17.65;2.88;;;11.80;99.90;;;;;;4996284;28;20026;-67
2022/10/03 08:14:28;;;;;;;20.60;2.92;;;12.00;99.90;;;;;;5000912;28;20069;-67
2022/10/03 08:17:20;;;;;;;20.55;2.97;;;12.10;99.90;;;;;;5001543;28;20509;-67
2022/10/03 08:20:06;;;;;;;29.80;3.60;;;12.10;99.90;;;;;;5001542;28;20088;-66
2022/10/03 08:23:13;;;;;;;20.60;3.88;;;12.20;99.70;;;;;;5005020;28;20042;-67
2022/10/03 08:26:06;;;;;;;15.90;3.78;;;12.30;99.20;;;;;;5001329;28;20382;-69
2022/10/03 08:28:50;;;;;;;19.73;3.67;;;12.50;99.20;;;;;;5005668;28;20105;-66
2022/10/03 08:31:47;;;;;;;18.13;3.53;;;12.70;98.90;;;;;;5004626;28;20084;-67
2022/10/03 08:34:38;;;;;;;17.10;3.90;;;12.70;98.00;;;;;;4998445;28;20192;-66
2022/10/03 08:37:28;;;;;;;19.23;4.05;;;12.90;97.60;;;;;;5000552;28;20457;-67
2022/10/03 08:39:56;;;;;;;14.13;3.47;;;12.90;97.40;;;;;;5014584;28;20029;-66
2022/10/03 08:42:46;;;;;;;15.40;3.83;;;13.00;97.20;;;;;;5004522;28;20082;-66
2022/10/03 08:45:30;;;;;;;18.35;2.97;;;13.00;96.80;;;;;;5003684;28;20038;-67
2022/10/03 08:48:39;;;;;;;16.60;3.22;;;13.20;96.30;;;;;;5009420;28;20101;-66
2022/10/03 08:51:49;;;;;;;21.45;3.28;;;13.20;96.00;;;;;;5003893;28;20262;-66
2022/10/03 08:54:49;;;;;;;19.75;2.33;;;13.20;95.90;;;;;;5003622;28;20148;-66
2022/10/03 08:57:28;;;;;;;16.40;2.08;;;13.40;95.60;;;;;;4997881;28;20542;-66
2022/10/03 09:00:14;;;;;;;18.65;2.17;;;13.70;95.30;;;;;;5005947;28;20486;-66
2022/10/03 09:03:17;;;;;;;13.70;1.80;;;13.80;95.00;;;;;;5001851;28;20470;-66
2022/10/03 09:06:02;;;;;;;13.27;1.85;;;13.90;94.30;;;;;;4997333;28;20037;-66
2022/10/03 09:08:27;;;;;;;8.40;1.77;;;14.00;94.00;;;;;;5001266;28;20439;-67
2022/10/03 09:11:10;;;;;;;12.45;2.25;;;14.00;93.70;;;;;;5001938;28;20096;-67
2022/10/03 09:14:15;;;;;;;9.27;1.92;;;14.00;93.40;;;;;;4996767;28;20121;-67
2022/10/03 09:17:10;;;;;;;9.68;1.83;;;14.30;93.90;;;;;;5004566;28;20339;-66
2022/10/03 09:19:55;;;;;;;9.75;1.73;;;14.30;93.30;;;;;;4997941;28;20037;-69
2022/10/03 09:22:41;;;;;;;15.35;2.20;;;14.30;93.00;;;;;;5006184;28;20461;-67
2022/10/03 09:25:43;;;;;;;13.65;1.90;;;14.10;92.70;;;;;;4999469;28;20041;-66
2022/10/03 09:28:46;;;;;;;10.90;1.98;;;14.10;92.40;;;;;;4999183;28;20323;-67
2022/10/03 09:31:21;;;;;;;10.98;1.60;;;14.10;92.20;;;;;;5002659;28;20041;-67
2022/10/03 09:34:08;;;;;;;9.43;1.35;;;14.10;92.50;;;;;;5001681;28;20056;-66
2022/10/03 09:37:11;;;;;;;12.93;1.98;;;14.10;92.50;;;;;;5002091;28;20035;-66
2022/10/03 09:39:54;;;;;;;7.43;1.30;;;14.00;92.00;;;;;;4999451;28;20037;-67
2022/10/03 09:42:25;;;;;;;11.43;2.03;;;14.10;92.00;;;;;;5002276;28;20041;-66
2022/10/03 09:45:14;;;;;;;16.73;1.67;;;14.20;91.80;;;;;;5006292;28;20073;-67
2022/10/03 09:48:08;;;;;;;14.05;2.42;;;14.20;91.30;;;;;;5000995;28;20201;-66
2022/10/03 09:51:08;;;;;;;6.28;1.30;;;14.60;91.40;;;;;;5009142;28;20026;-66
2022/10/03 09:54:00;;;;;;;6.60;1.33;;;14.60;90.80;;;;;;4999285;28;20462;-67
2022/10/03 09:56:43;;;;;;;16.67;1.70;;;14.70;90.30;;;;;;5004524;28;20073;-68
2022/10/03 09:59:22;;;;;;;10.40;1.95;;;15.10;89.40;;;;;;5008638;28;20037;-67
2022/10/03 10:02:32;;;;;;;9.63;1.60;;;15.30;88.70;;;;;;5004828;28;20200;-67
2022/10/03 10:05:19;;;;;;;7.63;1.70;;;15.10;88.60;;;;;;5009961;28;20032;-67
2022/10/03 10:08:06;;;;;;;7.13;1.10;;;15.10;88.90;;;;;;5006044;28;20030;-68
2022/10/03 10:10:56;;;;;;;13.50;1.80;;;15.20;88.90;;;;;;5001752;28;20427;-68
2022/10/03 10:13:46;;;;;;;9.30;1.38;;;15.10;88.30;;;;;;5007623;28;20091;-68
2022/10/03 10:16:27;;;;;;;12.68;1.52;;;14.90;89.10;;;;;;5008171;28;20038;-68
2022/10/03 10:19:25;;;;;;;10.88;1.50;;;15.10;89.20;;;;;;5008732;28;20038;-68
2022/10/03 10:22:20;;;;;;;10.32;1.50;;;15.20;88.20;;;;;;5014750;28;20148;-68
2022/10/03 10:25:23;;;;;;;9.70;1.60;;;15.30;88.40;;;;;;5008234;28;20038;-68
2022/10/03 10:28:16;;;;;;;11.73;2.03;;;15.30;87.30;;;;;;5013892;28;20030;-67
2022/10/03 10:30:45;;;;;;;10.18;1.70;;;15.80;86.40;;;;;;4999529;28;20060;-68
2022/10/03 10:33:54;;;;;;;8.30;1.77;;;16.20;84.90;;;;;;5006004;28;20044;-67
2022/10/03 10:37:00;;;;;;;7.18;1.67;;;16.40;84.90;;;;;;5012084;28;20125;-68
2022/10/03 10:39:43;;;;;;;10.60;1.55;;;16.10;84.40;;;;;;5006422;28;20179;-68
2022/10/03 10:42:50;;;;;;;8.68;1.33;;;16.00;85.90;;;;;;5009425;28;20030;-67
2022/10/03 10:45:52;;;;;;;6.10;1.30;;;15.70;87.10;;;;;;5005066;28;20088;-69
2022/10/03 10:48:39;;;;;;;6.93;1.27;;;15.10;89.00;;;;;;5006178;28;20153;-67
2022/10/03 10:51:48;;;;;;;9.93;1.25;;;14.60;91.60;;;;;;4998430;28;20152;-71
2022/10/03 10:54:50;;;;;;;8.73;1.85;;;14.30;93.10;;;;;;5007659;28;20463;-68
2022/10/03 10:58:04;;;;;;;10.82;1.88;;;14.30;94.60;;;;;;5013613;28;20486;-68
2022/10/03 11:00:59;;;;;;;13.73;1.33;;;14.40;94.80;;;;;;5008741;28;20034;-67
2022/10/03 11:03:58;;;;;;;9.18;1.10;;;14.30;93.90;;;;;;5007330;28;20041;-67
2022/10/03 11:06:29;;;;;;;6.72;1.23;;;14.50;94.20;;;;;;4995375;28;20539;-68
2022/10/03 11:09:13;;;;;;;;;;;14.90;94.00;;;;;;5006902;28;20067;-68
2022/10/03 11:12:10;;;;;;;7.40;1.30;;;15.40;92.00;;;;;;5008305;28;19909;-68
2022/10/03 11:15:28;;;;;;;6.80;1.25;;;16.00;90.70;;;;;;5007392;28;20045;-68
2022/10/03 11:18:38;;;;;;;9.88;1.13;;;16.00;88.10;;;;;;5007870;28;20042;-69
2022/10/03 11:21:44;;;;;;;6.35;1.38;;;16.00;87.30;;;;;;5023400;28;20026;-68
2022/10/03 11:25:01;;;;;;;8.50;1.42;;;16.50;88.20;;;;;;4999398;28;20456;-68
2022/10/03 11:27:54;;;;;;;9.60;1.00;;;16.80;86.60;;;;;;5004917;28;20064;-66
2022/10/03 11:30:48;;;;;;;11.10;1.23;;;16.80;83.40;;;;;;5004978;28;20114;-66
2022/10/03 11:33:40;;;;;;;8.80;1.17;;;16.50;85.10;;;;;;5003298;28;20034;-66
2022/10/03 11:36:20;;;;;;;6.35;1.02;;;16.30;84.30;;;;;;5008880;28;20361;-67
2022/10/03 11:39:05;;;;;;;4.90;1.25;;;16.00;84.00;;;;;;5008299;28;20084;-67
2022/10/03 11:41:56;;;;;;;6.75;1.27;;;16.00;85.30;;;;;;5006358;28;20030;-67
2022/10/03 11:44:31;;;;;;;10.68;1.63;;;16.00;85.50;;;;;;5009915;28;20088;-67
2022/10/03 11:47:17;;;;;;;8.13;1.08;;;16.00;86.60;;;;;;4998493;28;20129;-67
2022/10/03 11:50:18;;;;;;;6.90;1.00;;;15.80;86.00;;;;;;5001199;28;20033;-67
2022/10/03 11:53:09;;;;;;;8.02;1.50;;;15.60;86.30;;;;;;5005560;28;20065;-66
2022/10/03 11:55:41;;;;;;;;;;;15.40;87.80;;;;;;5007260;28;20117;-68
2022/10/03 11:58:24;;;;;;;5.72;0.93;;;15.20;89.20;;;;;;5007480;28;20352;-69
2022/10/03 12:01:05;;;;;;;7.38;0.98;;;15.20;87.80;;;;;;5020479;28;20033;-67
2022/10/03 12:03:42;;;;;;;6.38;0.68;;;15.20;87.20;;;;;;5008344;28;20362;-66
2022/10/03 12:09:28;;;;;;;6.40;1.10;;;15.50;87.00;;;;;;5004936;28;20059;-66
2022/10/03 12:12:03;;;;;;;8.45;1.08;;;15.80;87.10;;;;;;5005894;28;20128;-67
2022/10/03 12:14:37;;;;;;;4.75;1.20;;;16.40;87.10;;;;;;5005217;28;20317;-67
2022/10/03 12:17:21;;;;;;;8.88;1.52;;;17.40;84.20;;;;;;5008714;28;20176;-67
2022/10/03 12:20:02;;;;;;;3.63;1.00;;;17.00;82.70;;;;;;5011624;28;20030;-67
2022/10/03 12:22:50;;;;;;;7.78;1.40;;;16.60;84.10;;;;;;4993111;28;20329;-68
2022/10/03 12:25:29;;;;;;;7.78;1.15;;;16.30;84.60;;;;;;5007298;28;20033;-67
2022/10/03 12:28:10;;;;;;;6.25;1.13;;;16.10;86.40;;;;;;5001951;28;20041;-67
2022/10/03 12:30:46;;;;;;;;;;;15.90;85.60;;;;;;5000565;28;20038;-67
2022/10/03 12:33:53;;;;;;;6.55;1.20;;;16.00;86.70;;;;;;4996862;28;19913;-68
2022/10/03 12:36:41;;;;;;;6.88;1.02;;;15.90;86.20;;;;;;4936187;29;20129;-67
2022/10/03 12:39:28;;;;;;;6.13;1.42;;;16.00;86.70;;;;;;4924187;29;20125;-67
2022/10/03 12:42:31;;;;;;;6.72;1.00;;;16.00;86.20;;;;;;4982948;28;20034;-67
2022/10/03 12:45:22;;;;;;;9.93;1.77;;;16.00;86.10;;;;;;5000569;28;20037;-68
2022/10/03 12:48:17;;;;;;;5.70;1.27;;;16.00;86.10;;;;;;4999372;28;20076;-67
2022/10/03 12:50:54;;;;;;;5.78;1.08;;;15.80;86.10;;;;;;5005299;28;20081;-67
2022/10/03 12:53:45;;;;;;;7.07;1.13;;;15.60;86.30;;;;;;5004976;28;20366;-68
2022/10/03 12:56:40;;;;;;;5.32;1.00;;;15.50;87.80;;;;;;5004543;28;20478;-67
2022/10/03 12:59:31;;;;;;;8.25;1.25;;;15.10;89.30;;;;;;5005658;28;20045;-67
2022/10/03 13:02:11;;;;;;;7.10;1.30;;;15.00;89.80;;;;;;5004374;28;20439;-67
2022/10/03 13:05:01;;;;;;;4.88;0.73;;;14.90;90.40;;;;;;5006210;28;20034;-67
2022/10/03 13:07:41;;;;;;;9.75;1.08;;;14.90;90.20;;;;;;5006094;28;20042;-67
2022/10/03 13:10:31;;;;;;;8.70;1.25;;;14.90;90.20;;;;;;5002707;28;20046;-68
2022/10/03 13:13:22;;;;;;;7.18;1.48;;;15.00;90.60;;;;;;5006679;28;20117;-67
2022/10/03 13:16:04;;;;;;;8.70;1.50;;;15.00;90.50;;;;;;5007783;28;20045;-66
2022/10/03 13:18:53;;;;;;;7.50;1.77;;;15.20;90.70;;;;;;4998033;28;20617;-67
2022/10/03 13:21:25;;;;;;;6.30;1.30;;;15.30;89.30;;;;;;5010194;28;20621;-68
2022/10/03 13:23:57;;;;;;;8.15;1.00;;;15.40;88.90;;;;;;5009095;28;20027;-67
2022/10/03 13:26:53;;;;;;;6.43;1.00;;;15.50;88.90;;;;;;5009140;28;20026;-67
2022/10/03 13:29:29;;;;;;;6.57;1.00;;;15.60;88.70;;;;;;5006887;28;20108;-67
2022/10/03 13:32:20;;;;;;;6.90;0.98;;;15.60;89.00;;;;;;5008738;28;20121;-67
2022/10/03 13:35:57;;;;;;;7.32;1.27;;;15.50;89.10;;;;;;5011015;28;20121;-67
2022/10/03 13:38:17;;;;;;;3.70;0.77;;;15.30;88.90;;;;;;5007056;28;20185;-67
2022/10/03 13:40:54;;;;;;;9.38;0.90;;;15.20;89.20;;;;;;5001577;28;20725;-67
2022/10/03 13:43:27;;;;;;;10.60;1.48;;;15.10;88.50;;;;;;5019294;28;20028;-67
2022/10/03 13:45:55;;;;;;;3.78;0.88;;;15.20;89.10;;;;;;5010538;28;20139;-67
2022/10/03 13:48:26;;;;;;;6.43;1.10;;;15.30;88.80;;;;;;5012537;28;20191;-67
2022/10/03 13:51:01;;;;;;;6.18;0.90;;;15.50;88.80;;;;;;5003382;28;20030;-68
2022/10/03 13:53:57;;;;;;;13.95;1.48;;;15.50;88.10;;;;;;5004360;28;20049;-67
2022/10/03 13:56:38;;;;;;;12.82;1.85;;;15.80;88.30;;;;;;5003927;28;20041;-68
2022/10/03 13:59:22;;;;;;;11.85;1.48;;;15.80;87.60;;;;;;5008770;28;20129;-69
2022/10/03 14:02:20;;;;;;;5.97;0.88;;;15.80;87.70;;;;;;5007449;28;20030;-67
2022/10/03 14:04:46;;;;;;;5.97;1.30;;;15.90;87.10;;;;;;5010523;28;20111;-67
2022/10/03 14:07:24;;;;;;;7.13;1.20;;;16.00;87.00;;;;;;5015457;28;20041;-68
2022/10/03 14:10:16;;;;;;;9.38;1.27;;;16.20;86.40;;;;;;5005670;28;20675;-67
2022/10/03 14:13:01;;;;;;;5.38;1.02;;;16.30;85.70;;;;;;5017930;28;20183;-67
2022/10/03 14:15:30;;;;;;;10.65;1.60;;;16.20;85.80;;;;;;5000215;28;20362;-67
2022/10/03 14:18:01;;;;;;;6.82;1.10;;;16.10;86.50;;;;;;5001491;28;20091;-67
2022/10/03 14:20:37;;;;;;;10.82;1.45;;;16.00;86.60;;;;;;5010951;28;20026;-67
2022/10/03 14:23:12;;;;;;;7.68;1.13;;;16.00;86.30;;;;;;5006661;28;20427;-67
2022/10/03 14:25:56;;;;;;;6.78;1.17;;;16.00;86.60;;;;;;5014670;28;20191;-67
2022/10/03 14:28:44;;;;;;;8.65;1.30;;;15.90;86.90;;;;;;4999959;28;20036;-67
2022/10/03 14:31:37;;;;;;;9.40;1.48;;;16.00;86.50;;;;;;5004090;28;20056;-67
2022/10/03 14:34:14;;;;;;;7.63;1.13;;;16.00;86.20;;;;;;5004218;28;20042;-68
2022/10/03 14:36:48;;;;;;;7.93;1.20;;;15.90;86.50;;;;;;5010191;28;20057;-67
2022/10/03 14:39:39;;;;;;;11.18;1.92;;;15.70;87.20;;;;;;5009412;28;20149;-67
2022/10/03 14:42:29;;;;;;;8.30;1.60;;;15.70;87.30;;;;;;4999244;28;20590;-68
2022/10/03 14:45:06;;;;;;;13.18;1.90;;;15.70;87.80;;;;;;5003647;28;20123;-67
2022/10/03 14:47:39;;;;;;;9.57;1.25;;;15.60;87.80;;;;;;5008390;28;20355;-66